Time;durP1;ratioP1;P1;durP2;ratioP2;P2;SDS_P1;SDS_P2;PMS_P1;PMS_P2;Temp;Humidity;BMP_temperature;BMP_pressure;BME280_temperature;BME280_humidity;BME280_pressure;Samples;Min_cycle;Max_cycle;Signal;HPM_P1;HPM_P2
2023/01/15 00:00:14;;;;;;;0.88;0.85;;;11.10;67.90;;;;;;5071678;28;20053;-65
2023/01/15 00:02:39;;;;;;;1.42;0.98;;;11.10;67.70;;;;;;5078494;28;20030;-65
2023/01/15 00:05:05;;;;;;;4.50;1.10;;;11.10;67.70;;;;;;5078003;28;20059;-65
2023/01/15 00:07:31;;;;;;;1.13;0.80;;;11.20;67.70;;;;;;5086466;28;20032;-65
2023/01/15 00:09:57;;;;;;;2.20;0.90;;;11.10;67.60;;;;;;5080079;28;20039;-64
2023/01/15 00:12:22;;;;;;;1.95;1.20;;;11.10;67.60;;;;;;5087744;28;20020;-65
2023/01/15 00:14:48;;;;;;;2.05;1.10;;;11.20;67.50;;;;;;5079564;28;20040;-65
2023/01/15 00:17:14;;;;;;;1.48;0.90;;;11.20;67.50;;;;;;5080645;28;20024;-65
2023/01/15 00:19:40;;;;;;;0.88;0.88;;;11.20;67.40;;;;;;5080707;28;20111;-65
2023/01/15 00:22:05;;;;;;;1.02;0.82;;;11.20;67.40;;;;;;5069015;28;20040;-65
2023/01/15 00:29:59;;;;;;;0.93;0.85;;;11.20;67.20;;;;;;5075211;28;20039;-64
2023/01/15 00:32:26;;;;;;;1.25;0.80;;;11.20;67.00;;;;;;5081720;28;20012;-65
2023/01/15 00:34:52;;;;;;;1.13;1.00;;;11.20;66.90;;;;;;5078319;28;20119;-65
2023/01/15 00:37:18;;;;;;;0.93;0.82;;;11.20;66.90;;;;;;5078383;28;20658;-64
2023/01/15 00:39:43;;;;;;;0.90;0.80;;;11.20;66.70;;;;;;5083402;28;20043;-64
2023/01/15 00:42:11;;;;;;;1.13;1.00;;;11.20;66.70;;;;;;5079171;28;20047;-65
2023/01/15 00:44:36;;;;;;;1.73;1.30;;;11.20;66.50;;;;;;5079047;28;20081;-65
2023/01/15 00:47:02;;;;;;;1.50;1.40;;;11.20;66.50;;;;;;5074065;28;20024;-64
2023/01/15 00:49:28;;;;;;;1.35;1.10;;;11.20;66.40;;;;;;5068949;28;20059;-66
2023/01/15 00:51:54;;;;;;;3.35;1.10;;;11.20;66.20;;;;;;5076531;28;20045;-64
2023/01/15 00:54:19;;;;;;;1.42;1.30;;;11.20;66.00;;;;;;5085976;28;20054;-65
2023/01/15 00:56:45;;;;;;;2.08;1.30;;;11.20;65.90;;;;;;5084466;28;21615;-65
2023/01/15 00:59:11;;;;;;;2.55;1.15;;;11.20;65.70;;;;;;5081103;28;20032;-67
2023/01/15 01:01:37;;;;;;;1.27;0.95;;;11.30;65.50;;;;;;5083411;28;20036;-64
2023/01/15 01:04:04;;;;;;;3.35;1.25;;;11.30;65.50;;;;;;5071042;28;20024;-66
2023/01/15 01:06:30;;;;;;;1.15;1.02;;;11.30;65.30;;;;;;5077493;28;20029;-66
2023/01/15 01:08:55;;;;;;;1.48;0.98;;;11.30;64.90;;;;;;5073833;28;20106;-66
2023/01/15 01:11:25;;;;;;;1.23;0.80;;;11.40;65.00;;;;;;5086806;28;20024;-65
2023/01/15 01:13:51;;;;;;;0.80;0.80;;;11.40;64.90;;;;;;5071494;28;20029;-67
2023/01/15 01:16:25;;;;;;;0.93;0.90;;;11.40;64.70;;;;;;5078390;28;20060;-65
2023/01/15 01:18:50;;;;;;;1.23;1.00;;;11.40;64.60;;;;;;5080075;28;20028;-65
2023/01/15 01:21:16;;;;;;;1.00;0.90;;;11.40;64.60;;;;;;5075058;28;20021;-65
2023/01/15 01:23:42;;;;;;;1.63;1.10;;;11.50;64.30;;;;;;5080657;28;20089;-66
2023/01/15 01:26:09;;;;;;;1.08;1.00;;;11.50;64.20;;;;;;5083217;28;20020;-66
2023/01/15 01:28:35;;;;;;;1.30;1.02;;;11.50;64.00;;;;;;5084231;28;20017;-67
2023/01/15 01:31:04;;;;;;;2.10;0.95;;;11.50;64.10;;;;;;5081456;28;20035;-67
2023/01/15 01:33:30;;;;;;;0.95;0.85;;;11.50;63.90;;;;;;5084919;28;20672;-66
2023/01/15 01:35:55;;;;;;;2.58;1.00;;;11.60;64.20;;;;;;5074736;28;20041;-66
2023/01/15 01:38:21;;;;;;;0.80;0.80;;;11.60;63.50;;;;;;5077631;28;20050;-63
2023/01/15 01:40:47;;;;;;;1.15;0.85;;;11.60;63.30;;;;;;5082640;28;20024;-67
2023/01/15 01:43:22;;;;;;;3.83;0.90;;;11.60;63.50;;;;;;5078585;28;20673;-65
2023/01/15 01:45:48;;;;;;;0.82;0.70;;;11.60;62.40;;;;;;5075316;28;20047;-65
2023/01/15 01:48:17;;;;;;;0.73;0.73;;;11.60;63.10;;;;;;5082045;28;20371;-63
2023/01/15 01:50:44;;;;;;;2.90;0.70;;;11.70;63.10;;;;;;5088385;28;20072;-64
2023/01/15 01:53:15;;;;;;;1.52;0.90;;;11.70;63.10;;;;;;5075892;28;20025;-64
2023/01/15 01:55:40;;;;;;;1.48;0.70;;;11.70;63.10;;;;;;5070016;28;20068;-67
2023/01/15 01:58:10;;;;;;;1.75;0.93;;;11.70;62.90;;;;;;5082885;28;20082;-66
2023/01/15 02:00:39;;;;;;;1.25;0.73;;;11.70;62.70;;;;;;5072056;28;20032;-65
2023/01/15 02:03:07;;;;;;;1.75;0.80;;;11.70;62.60;;;;;;5089456;28;20031;-65
2023/01/15 02:05:38;;;;;;;0.82;0.73;;;11.70;62.60;;;;;;5084009;28;20024;-66
2023/01/15 02:08:06;;;;;;;0.70;0.70;;;11.70;62.40;;;;;;5079872;28;20392;-64
2023/01/15 02:10:32;;;;;;;1.10;0.93;;;11.70;62.70;;;;;;5082467;28;20469;-65
2023/01/15 02:13:14;;;;;;;1.75;1.02;;;11.70;62.50;;;;;;5084003;28;20085;-64
2023/01/15 02:15:46;;;;;;;1.33;1.00;;;11.80;61.80;;;;;;5077739;28;20060;-65
2023/01/15 02:18:26;;;;;;;2.13;1.02;;;11.70;62.10;;;;;;5074995;28;20012;-64
2023/01/15 02:21:09;;;;;;;0.98;0.88;;;11.70;62.00;;;;;;5082347;28;20036;-62
2023/01/15 02:24:10;;;;;;;1.30;1.00;;;11.70;62.40;;;;;;5085331;28;20031;-64
2023/01/15 02:26:58;;;;;;;1.30;1.08;;;11.70;62.10;;;;;;5071825;28;20071;-65
2023/01/15 02:29:41;;;;;;;1.02;0.80;;;11.80;62.40;;;;;;5080113;28;20028;-65
2023/01/15 02:32:12;;;;;;;5.03;0.90;;;11.70;62.30;;;;;;5080416;28;20024;-65
2023/01/15 02:34:45;;;;;;;0.80;0.70;;;11.70;62.40;;;;;;5075727;28;20071;-65
2023/01/15 02:37:16;;;;;;;1.30;0.88;;;11.70;62.30;;;;;;5076090;28;20040;-65
2023/01/15 02:39:44;;;;;;;3.67;1.00;;;11.70;62.50;;;;;;5076671;28;20021;-64
2023/01/15 02:42:11;;;;;;;1.75;0.90;;;11.70;62.60;;;;;;5083963;28;20050;-65
2023/01/15 02:44:43;;;;;;;1.08;0.90;;;11.70;62.50;;;;;;5076143;28;20095;-66
2023/01/15 02:47:10;;;;;;;0.90;0.80;;;11.70;62.70;;;;;;5076656;28;20596;-66
2023/01/15 02:49:39;;;;;;;2.63;0.90;;;11.70;62.90;;;;;;5078312;28;20031;-65
2023/01/15 02:52:13;;;;;;;1.10;0.82;;;11.70;62.80;;;;;;5083902;28;20050;-65
2023/01/15 02:54:50;;;;;;;1.23;1.00;;;11.70;62.90;;;;;;5075789;28;20045;-64
2023/01/15 02:57:17;;;;;;;0.80;0.60;;;11.70;62.90;;;;;;5081530;28;20143;-66
2023/01/15 02:59:47;;;;;;;1.67;0.80;;;11.70;63.10;;;;;;5075699;28;20039;-65
2023/01/15 03:02:19;;;;;;;1.38;0.80;;;11.70;63.10;;;;;;5077854;28;20112;-66
2023/01/15 03:04:55;;;;;;;1.33;0.70;;;11.70;63.20;;;;;;5075010;28;20032;-65
2023/01/15 03:07:23;;;;;;;0.93;0.80;;;11.70;63.40;;;;;;5084939;28;20020;-65
2023/01/15 03:09:50;;;;;;;0.68;0.68;;;11.70;63.30;;;;;;5073885;28;20804;-65
2023/01/15 03:13:01;;;;;;;1.15;0.85;;;11.80;63.40;;;;;;5078665;28;20024;-66
2023/01/15 03:19:18;;;;;;;2.03;0.90;;;11.80;63.20;;;;;;5036485;28;20171;-64
2023/01/15 03:21:47;;;;;;;0.75;0.75;;;11.80;63.20;;;;;;5037242;28;20029;-64
2023/01/15 03:24:17;;;;;;;0.80;0.80;;;11.90;63.40;;;;;;5043617;28;20047;-64
2023/01/15 03:26:43;;;;;;;0.65;0.65;;;11.90;63.30;;;;;;5038017;28;20041;-64
2023/01/15 03:29:09;;;;;;;0.70;0.70;;;11.90;63.40;;;;;;5034524;28;20415;-64
2023/01/15 03:31:36;;;;;;;1.13;0.75;;;11.90;63.40;;;;;;5040488;28;20021;-66
2023/01/15 03:34:02;;;;;;;0.70;0.70;;;11.90;63.40;;;;;;5033156;28;20479;-65
2023/01/15 03:36:28;;;;;;;1.98;0.70;;;11.90;63.40;;;;;;5033040;28;20041;-65
2023/01/15 03:38:53;;;;;;;0.73;0.65;;;11.90;63.30;;;;;;5022680;28;20207;-65
2023/01/15 03:41:34;;;;;;;1.42;0.80;;;12.00;63.40;;;;;;5025333;28;20025;-65
2023/01/15 03:44:39;;;;;;;0.73;0.65;;;12.00;63.40;;;;;;5038421;28;20029;-64
2023/01/15 03:47:11;;;;;;;0.85;0.77;;;12.00;63.20;;;;;;5034336;28;20038;-64
2023/01/15 03:49:45;;;;;;;1.10;0.70;;;12.00;63.20;;;;;;5039195;28;20042;-65
2023/01/15 03:52:11;;;;;;;0.70;0.70;;;12.00;63.30;;;;;;5032045;28;20045;-65
2023/01/15 03:54:43;;;;;;;3.22;0.77;;;12.00;63.40;;;;;;5045407;28;20049;-65
2023/01/15 03:57:23;;;;;;;0.85;0.70;;;12.00;63.50;;;;;;5081655;28;20032;-64
2023/01/15 03:59:53;;;;;;;0.63;0.60;;;12.00;63.50;;;;;;5084026;28;20042;-64
2023/01/15 04:02:21;;;;;;;2.10;0.75;;;12.10;63.70;;;;;;5082244;28;20056;-64
2023/01/15 04:04:49;;;;;;;0.60;0.60;;;12.10;63.80;;;;;;5086954;28;20044;-64
2023/01/15 04:07:15;;;;;;;0.60;0.60;;;12.10;64.00;;;;;;5081384;28;20031;-64
2023/01/15 04:09:41;;;;;;;1.02;0.70;;;12.10;64.00;;;;;;5080092;28;20029;-64
2023/01/15 04:12:07;;;;;;;2.05;0.60;;;12.10;64.10;;;;;;5077726;28;20032;-63
2023/01/15 04:14:33;;;;;;;0.75;0.60;;;12.20;64.20;;;;;;5081778;28;20395;-65
2023/01/15 04:16:59;;;;;;;0.43;0.43;;;12.20;64.30;;;;;;5073317;28;20031;-64
2023/01/15 04:19:24;;;;;;;0.60;0.60;;;12.20;64.40;;;;;;5073377;28;20035;-65
2023/01/15 04:21:50;;;;;;;3.70;0.65;;;12.20;64.40;;;;;;5085447;28;20050;-64
2023/01/15 04:24:16;;;;;;;0.52;0.52;;;12.20;64.40;;;;;;5080212;28;20087;-66
2023/01/15 04:26:42;;;;;;;0.68;0.68;;;12.20;64.40;;;;;;5078128;28;20059;-64
2023/01/15 04:29:08;;;;;;;0.52;0.50;;;12.30;64.50;;;;;;5085419;28;20024;-64
2023/01/15 04:31:35;;;;;;;1.85;0.63;;;12.30;64.60;;;;;;5079629;28;20045;-64
2023/01/15 04:34:03;;;;;;;0.50;0.43;;;12.30;64.60;;;;;;5076090;28;20028;-64
2023/01/15 04:36:29;;;;;;;0.43;0.43;;;12.30;64.60;;;;;;5079032;28;20029;-64
2023/01/15 04:38:56;;;;;;;0.52;0.50;;;12.30;64.90;;;;;;5076260;28;20028;-64
2023/01/15 04:44:07;;;;;;;0.43;0.43;;;12.30;65.00;;;;;;5075944;28;20027;-64
2023/01/15 04:46:43;;;;;;;0.80;0.60;;;12.30;65.00;;;;;;5088718;28;20044;-66
2023/01/15 04:49:12;;;;;;;0.50;0.40;;;12.30;65.30;;;;;;5079190;28;20029;-64
2023/01/15 04:51:38;;;;;;;0.40;0.40;;;12.30;65.30;;;;;;5076334;28;20071;-64
2023/01/15 04:54:08;;;;;;;2.03;0.60;;;12.20;65.20;;;;;;5073462;28;20081;-64
2023/01/15 04:56:44;;;;;;;0.95;0.50;;;12.20;65.30;;;;;;5083827;28;20033;-65
2023/01/15 04:59:11;;;;;;;1.45;0.50;;;12.20;65.50;;;;;;5072122;28;20025;-65
2023/01/15 05:01:36;;;;;;;1.00;0.50;;;12.20;65.50;;;;;;5073284;28;20016;-64
2023/01/15 05:04:03;;;;;;;0.50;0.50;;;12.20;65.70;;;;;;5070973;28;20083;-65
2023/01/15 05:06:30;;;;;;;0.68;0.50;;;12.20;65.80;;;;;;5080724;28;20060;-65
2023/01/15 05:08:56;;;;;;;0.50;0.50;;;12.20;65.80;;;;;;5084525;28;20028;-65
2023/01/15 05:11:22;;;;;;;0.50;0.50;;;12.20;65.80;;;;;;5076615;28;20483;-65
2023/01/15 05:13:48;;;;;;;0.50;0.50;;;12.20;66.00;;;;;;5078380;28;20110;-65
2023/01/15 05:16:23;;;;;;;0.43;0.43;;;12.20;65.90;;;;;;5074369;28;20609;-65
2023/01/15 05:18:50;;;;;;;1.08;0.47;;;12.20;66.00;;;;;;5078653;28;20028;-65
2023/01/15 05:21:34;;;;;;;0.40;0.40;;;12.20;66.10;;;;;;5088398;28;20029;-65
2023/01/15 05:24:01;;;;;;;0.40;0.40;;;12.20;66.10;;;;;;5076501;28;20086;-65
2023/01/15 05:26:29;;;;;;;1.95;0.70;;;12.30;66.00;;;;;;5076459;28;20028;-65
2023/01/15 05:28:56;;;;;;;0.40;0.40;;;12.30;66.10;;;;;;5073398;28;20029;-65
2023/01/15 05:31:23;;;;;;;0.70;0.60;;;12.30;66.10;;;;;;5087337;28;20030;-63
2023/01/15 05:33:50;;;;;;;0.55;0.52;;;12.30;66.10;;;;;;5084005;28;20048;-64
2023/01/15 05:36:21;;;;;;;0.40;0.40;;;12.30;66.10;;;;;;5087345;28;20028;-64
2023/01/15 05:38:47;;;;;;;0.40;0.40;;;12.30;66.10;;;;;;5081401;28;20021;-65
2023/01/15 05:44:03;;;;;;;0.60;0.60;;;12.40;66.20;;;;;;5078434;28;20044;-64
2023/01/15 05:46:28;;;;;;;2.38;0.65;;;12.40;66.30;;;;;;5074988;28;20050;-64
2023/01/15 05:48:58;;;;;;;0.95;0.50;;;12.40;66.30;;;;;;5080664;28;20061;-65
2023/01/15 05:51:23;;;;;;;0.82;0.65;;;12.40;66.40;;;;;;5075781;28;20045;-64
2023/01/15 05:53:49;;;;;;;0.55;0.50;;;12.40;66.60;;;;;;5085288;28;20098;-64
2023/01/15 05:56:14;;;;;;;0.73;0.40;;;12.40;66.60;;;;;;5090402;28;20089;-64
2023/01/15 05:58:40;;;;;;;1.58;0.75;;;12.40;66.70;;;;;;5082464;28;20024;-63
2023/01/15 06:01:10;;;;;;;0.47;0.47;;;12.40;66.80;;;;;;5075280;28;20052;-64
2023/01/15 06:03:36;;;;;;;0.50;0.50;;;12.40;66.80;;;;;;5071298;28;20033;-64
2023/01/15 06:06:03;;;;;;;0.47;0.47;;;12.40;66.90;;;;;;5076611;28;20024;-65
2023/01/15 06:08:28;;;;;;;0.50;0.50;;;12.40;67.00;;;;;;5079493;28;20072;-65
2023/01/15 06:10:54;;;;;;;0.90;0.50;;;12.40;67.20;;;;;;5073396;28;20044;-65
2023/01/15 06:13:20;;;;;;;0.90;0.60;;;12.30;67.40;;;;;;5080426;28;20078;-66
2023/01/15 06:15:45;;;;;;;0.52;0.52;;;12.30;67.50;;;;;;5085483;28;20154;-64
2023/01/15 06:18:11;;;;;;;0.50;0.50;;;12.30;67.50;;;;;;5081664;28;20053;-64
2023/01/15 06:20:41;;;;;;;1.58;0.95;;;12.30;67.90;;;;;;5082071;28;20048;-64
2023/01/15 06:23:07;;;;;;;0.68;0.63;;;12.20;67.80;;;;;;5085456;28;20028;-65
2023/01/15 06:25:36;;;;;;;0.55;0.50;;;12.20;68.00;;;;;;5082848;28;20031;-65
2023/01/15 06:28:06;;;;;;;0.40;0.40;;;12.20;68.30;;;;;;5072118;28;20043;-64
2023/01/15 06:30:33;;;;;;;0.47;0.47;;;12.20;68.50;;;;;;5078464;28;20016;-65
2023/01/15 06:32:59;;;;;;;0.40;0.40;;;12.10;68.40;;;;;;5081745;28;20043;-65
2023/01/15 06:35:24;;;;;;;0.40;0.40;;;12.10;68.60;;;;;;5083367;28;20476;-65
2023/01/15 06:37:50;;;;;;;0.50;0.50;;;12.10;69.00;;;;;;5077523;28;20024;-64
2023/01/15 06:40:17;;;;;;;0.65;0.50;;;12.10;68.90;;;;;;5080273;28;20771;-64
2023/01/15 06:48:14;;;;;;;2.50;0.50;;;12.00;69.20;;;;;;5080117;28;20055;-65
2023/01/15 06:50:40;;;;;;;0.98;0.70;;;11.90;69.30;;;;;;5083671;28;20048;-64
2023/01/15 06:53:05;;;;;;;1.33;0.60;;;11.90;69.80;;;;;;5079191;28;20020;-65
2023/01/15 06:55:31;;;;;;;1.15;0.47;;;11.90;69.70;;;;;;5079211;28;20036;-64
2023/01/15 06:57:57;;;;;;;0.60;0.60;;;11.90;70.00;;;;;;5077990;28;20492;-64
2023/01/15 07:00:22;;;;;;;0.80;0.70;;;11.90;70.00;;;;;;5079712;28;20036;-64
2023/01/15 07:02:48;;;;;;;1.52;0.80;;;11.80;70.20;;;;;;5074257;28;20024;-65
2023/01/15 07:05:14;;;;;;;1.30;1.20;;;11.80;70.30;;;;;;5074808;28;20020;-65
2023/01/15 07:07:40;;;;;;;0.98;0.60;;;11.80;70.50;;;;;;5087048;28;20077;-65
2023/01/15 07:10:06;;;;;;;0.40;0.40;;;11.80;70.60;;;;;;5085111;28;20040;-64
2023/01/15 07:12:34;;;;;;;0.63;0.63;;;11.70;70.60;;;;;;5076724;28;20054;-64
2023/01/15 07:14:59;;;;;;;1.85;0.50;;;11.70;70.80;;;;;;5082745;28;20506;-64
2023/01/15 07:17:25;;;;;;;0.98;0.60;;;11.70;71.40;;;;;;5080302;28;20031;-64
2023/01/15 07:19:50;;;;;;;0.60;0.60;;;11.70;71.20;;;;;;5076770;28;20036;-63
2023/01/15 07:22:16;;;;;;;0.50;0.50;;;11.70;71.20;;;;;;5087028;28;20029;-65
2023/01/15 07:24:42;;;;;;;1.30;0.50;;;11.70;71.30;;;;;;5074796;28;20033;-64
2023/01/15 07:27:07;;;;;;;1.10;0.40;;;11.70;71.00;;;;;;5076163;28;20047;-66
2023/01/15 07:29:33;;;;;;;1.05;0.60;;;11.60;70.70;;;;;;5083165;28;20016;-64
2023/01/15 07:31:59;;;;;;;0.40;0.40;;;11.50;70.60;;;;;;5071970;28;20040;-65
2023/01/15 07:34:25;;;;;;;0.28;0.28;;;11.50;70.70;;;;;;5077350;28;20060;-65
2023/01/15 07:36:50;;;;;;;0.40;0.40;;;11.40;70.80;;;;;;5083273;28;20036;-65
2023/01/15 07:39:16;;;;;;;0.40;0.40;;;11.30;70.40;;;;;;5086534;28;20068;-65
2023/01/15 07:50:11;;;;;;;0.40;0.40;;;11.00;70.60;;;;;;5073018;28;20035;-65
2023/01/15 07:52:36;;;;;;;0.50;0.50;;;10.90;70.20;;;;;;5072625;28;20040;-64
2023/01/15 07:55:03;;;;;;;0.52;0.50;;;10.90;70.60;;;;;;5076624;28;20051;-66
2023/01/15 07:57:29;;;;;;;0.40;0.40;;;10.80;70.30;;;;;;5082796;28;20510;-63
2023/01/15 07:59:55;;;;;;;0.45;0.45;;;10.70;70.20;;;;;;5076123;28;20036;-65
2023/01/15 08:02:20;;;;;;;0.30;0.30;;;10.70;70.40;;;;;;5076605;28;20043;-64
2023/01/15 08:04:46;;;;;;;0.40;0.40;;;10.60;70.20;;;;;;5080246;28;20502;-63
2023/01/15 08:07:14;;;;;;;0.40;0.30;;;10.50;70.10;;;;;;5071293;28;20021;-64
2023/01/15 08:09:40;;;;;;;0.40;0.40;;;10.50;70.40;;;;;;5071456;28;20032;-65
2023/01/15 08:17:36;;;;;;;0.50;0.50;;;10.20;70.00;;;;;;5078394;28;20139;-65
2023/01/15 08:20:08;;;;;;;0.50;0.50;;;10.10;69.60;;;;;;5073318;28;20039;-65
2023/01/15 08:22:33;;;;;;;0.52;0.52;;;10.00;69.90;;;;;;5076642;28;20516;-65
2023/01/15 08:24:59;;;;;;;0.40;0.40;;;10.00;70.10;;;;;;5079044;28;20033;-65
2023/01/15 08:27:25;;;;;;;0.40;0.40;;;9.90;69.80;;;;;;5077988;28;20028;-65
2023/01/15 08:29:52;;;;;;;0.43;0.40;;;9.80;69.70;;;;;;5077010;28;20078;-65
2023/01/15 08:32:17;;;;;;;0.30;0.30;;;9.80;69.70;;;;;;5075796;28;20024;-65
2023/01/15 08:34:43;;;;;;;0.40;0.40;;;9.70;69.80;;;;;;5077065;28;20561;-65
2023/01/15 08:37:08;;;;;;;0.30;0.30;;;9.60;69.80;;;;;;5073910;28;20017;-65
2023/01/15 08:39:34;;;;;;;0.40;0.40;;;9.60;70.60;;;;;;5078722;28;20372;-65
2023/01/15 08:42:00;;;;;;;0.40;0.40;;;9.50;69.80;;;;;;5079091;28;20340;-64
2023/01/15 08:44:25;;;;;;;0.30;0.30;;;9.50;69.80;;;;;;5079722;28;20032;-64
2023/01/15 08:46:52;;;;;;;0.38;0.38;;;9.40;69.60;;;;;;5076401;28;20028;-63
2023/01/15 08:49:19;;;;;;;0.30;0.30;;;9.30;69.60;;;;;;5081368;28;20033;-65
2023/01/15 08:51:48;;;;;;;0.30;0.30;;;9.30;69.80;;;;;;5078962;28;20049;-64
2023/01/15 08:54:15;;;;;;;0.40;0.40;;;9.20;69.60;;;;;;5080859;28;20025;-64
2023/01/15 08:56:40;;;;;;;0.40;0.40;;;9.20;69.70;;;;;;5076870;28;20028;-65
2023/01/15 08:59:07;;;;;;;0.35;0.35;;;9.10;69.90;;;;;;5079160;28;20025;-65
2023/01/15 09:01:33;;;;;;;0.40;0.40;;;9.10;70.10;;;;;;5081542;28;20024;-65
2023/01/15 09:03:59;;;;;;;0.40;0.40;;;9.00;70.00;;;;;;5087113;28;20024;-64
2023/01/15 09:06:25;;;;;;;0.43;0.43;;;9.00;69.80;;;;;;5077566;28;20071;-64
2023/01/15 09:08:51;;;;;;;0.40;0.40;;;9.00;69.80;;;;;;5078044;28;20475;-64
2023/01/15 09:11:17;;;;;;;0.40;0.40;;;8.90;69.60;;;;;;5074514;28;20033;-64
2023/01/15 09:13:42;;;;;;;0.40;0.40;;;8.90;69.70;;;;;;5080272;28;20033;-65
2023/01/15 09:16:08;;;;;;;0.47;0.47;;;8.80;70.00;;;;;;5072812;28;20039;-64
2023/01/15 09:18:37;;;;;;;1.75;0.40;;;8.80;69.70;;;;;;5080432;28;20071;-65
2023/01/15 09:21:05;;;;;;;0.30;0.30;;;8.70;69.70;;;;;;5075700;28;20021;-63
2023/01/15 09:23:30;;;;;;;0.40;0.40;;;8.70;70.00;;;;;;5079184;28;20452;-65
2023/01/15 09:26:01;;;;;;;0.40;0.40;;;8.60;70.10;;;;;;5071398;28;20043;-66
2023/01/15 09:28:30;;;;;;;0.65;0.65;;;8.60;70.10;;;;;;5087179;28;20024;-63
2023/01/15 09:30:56;;;;;;;0.60;0.60;;;8.50;70.00;;;;;;5072371;28;20052;-63
2023/01/15 09:33:21;;;;;;;0.50;0.50;;;8.50;70.20;;;;;;5108329;28;20025;-63
2023/01/15 09:35:47;;;;;;;1.20;0.95;;;8.50;70.40;;;;;;5079028;28;20032;-64
2023/01/15 09:38:15;;;;;;;0.82;0.80;;;8.40;70.30;;;;;;5077522;28;20051;-64
2023/01/15 09:40:55;;;;;;;0.70;0.70;;;8.40;70.40;;;;;;5081333;28;20031;-63
2023/01/15 09:43:48;;;;;;;0.73;0.65;;;8.40;70.80;;;;;;5077847;28;20031;-63
2023/01/15 09:46:22;;;;;;;0.50;0.50;;;8.40;70.70;;;;;;5075459;28;20039;-64
2023/01/15 09:49:00;;;;;;;0.50;0.50;;;8.40;70.50;;;;;;5101590;28;20059;-64
2023/01/15 09:51:35;;;;;;;4.47;3.20;;;8.40;70.60;;;;;;5074890;28;20094;-63
2023/01/15 09:54:04;;;;;;;1.20;1.10;;;8.40;70.90;;;;;;5074778;28;20028;-63
2023/01/15 09:56:33;;;;;;;0.50;0.50;;;8.40;71.10;;;;;;5072704;28;20032;-63
2023/01/15 09:59:23;;;;;;;0.50;0.50;;;8.40;70.90;;;;;;5081532;28;20040;-63
2023/01/15 10:01:52;;;;;;;0.50;0.50;;;8.40;71.00;;;;;;5075414;28;20055;-63
2023/01/15 10:04:39;;;;;;;0.70;0.70;;;8.40;70.80;;;;;;5077023;28;20021;-63
2023/01/15 10:07:32;;;;;;;0.40;0.40;;;8.50;70.80;;;;;;5079416;28;20032;-63
2023/01/15 10:10:09;;;;;;;4.57;4.15;;;8.50;70.60;;;;;;5080109;28;20032;-64
2023/01/15 10:12:43;;;;;;;2.42;2.22;;;8.50;70.80;;;;;;5080752;28;20035;-64
2023/01/15 10:15:40;;;;;;;0.60;0.60;;;8.50;70.90;;;;;;5083638;28;20036;-64
2023/01/15 10:18:07;;;;;;;0.40;0.40;;;8.50;71.00;;;;;;5070876;28;20390;-64
2023/01/15 10:20:55;;;;;;;0.40;0.40;;;8.50;70.50;;;;;;5020737;27;20078;-64
2023/01/15 10:24:03;;;;;;;0.60;0.60;;;8.50;70.60;;;;;;5079369;28;20123;-63
2023/01/15 10:26:41;;;;;;;1.23;0.82;;;8.50;70.70;;;;;;5072291;28;20032;-62
2023/01/15 10:29:16;;;;;;;0.50;0.50;;;8.40;70.40;;;;;;5080878;28;20135;-63
2023/01/15 10:31:58;;;;;;;0.40;0.40;;;8.40;70.70;;;;;;5070895;28;20029;-63
2023/01/15 10:34:26;;;;;;;0.88;0.60;;;8.40;71.00;;;;;;5073250;28;20074;-64
2023/01/15 10:37:00;;;;;;;0.50;0.50;;;8.40;70.90;;;;;;5076470;28;20060;-64
2023/01/15 10:39:35;;;;;;;0.80;0.80;;;8.50;71.10;;;;;;5076549;28;20103;-64
2023/01/15 10:42:30;;;;;;;0.57;0.57;;;8.50;71.00;;;;;;5071326;28;20032;-64
2023/01/15 10:45:20;;;;;;;0.98;0.63;;;8.50;70.60;;;;;;5075605;28;20028;-63
2023/01/15 10:47:50;;;;;;;0.60;0.60;;;8.50;70.60;;;;;;5075780;28;20035;-64
2023/01/15 10:50:23;;;;;;;0.63;0.60;;;8.50;70.50;;;;;;5080561;28;20039;-63
2023/01/15 10:53:13;;;;;;;1.17;0.60;;;8.50;70.50;;;;;;5069335;28;20045;-64
2023/01/15 10:55:43;;;;;;;0.90;0.80;;;8.50;70.50;;;;;;5074559;28;20055;-64
2023/01/15 10:58:27;;;;;;;0.80;0.80;;;8.50;71.20;;;;;;5085201;28;20020;-64
2023/01/15 11:00:59;;;;;;;0.60;0.60;;;8.50;71.00;;;;;;5068974;28;20087;-64
2023/01/15 11:03:39;;;;;;;0.80;0.80;;;8.50;70.80;;;;;;5073471;28;20040;-65
2023/01/15 11:06:10;;;;;;;6.65;4.15;;;8.60;71.80;;;;;;5068754;28;20048;-65
2023/01/15 11:08:38;;;;;;;2.72;1.60;;;8.60;71.10;;;;;;5066199;28;20041;-64
2023/01/15 11:19:39;;;;;;;2.05;1.58;;;8.70;70.60;;;;;;5085476;28;20035;-64
2023/01/15 11:22:27;;;;;;;1.93;1.20;;;8.70;70.90;;;;;;5080755;28;20028;-64
2023/01/15 11:24:57;;;;;;;0.60;0.60;;;8.80;71.00;;;;;;5082878;28;20028;-65
2023/01/15 11:27:30;;;;;;;0.50;0.50;;;8.80;70.60;;;;;;5076490;28;20036;-63
2023/01/15 11:29:59;;;;;;;0.50;0.50;;;8.70;70.30;;;;;;5078342;28;20025;-64
2023/01/15 11:32:31;;;;;;;0.50;0.50;;;8.70;70.10;;;;;;5080403;28;20056;-65
2023/01/15 11:35:15;;;;;;;0.60;0.60;;;8.60;70.00;;;;;;5076593;28;20490;-64
2023/01/15 11:37:40;;;;;;;2.05;1.10;;;8.60;71.00;;;;;;5082773;28;20025;-65
2023/01/15 11:40:18;;;;;;;0.50;0.50;;;8.50;70.30;;;;;;5070351;28;20035;-65
2023/01/15 11:51:07;;;;;;;0.88;0.85;;;8.30;69.40;;;;;;5073631;28;20560;-64
2023/01/15 11:53:44;;;;;;;0.60;0.60;;;8.20;69.80;;;;;;5077378;28;20033;-65
2023/01/15 11:56:14;;;;;;;0.50;0.50;;;8.10;70.00;;;;;;5083449;28;20038;-65
2023/01/15 11:58:49;;;;;;;0.50;0.50;;;8.10;70.20;;;;;;5080846;28;20020;-65
2023/01/15 12:01:34;;;;;;;0.50;0.50;;;8.00;70.10;;;;;;5082369;28;20410;-64
2023/01/15 12:04:01;;;;;;;0.82;0.82;;;8.00;70.00;;;;;;5080677;28;20025;-64
2023/01/15 12:06:30;;;;;;;0.50;0.50;;;7.90;69.80;;;;;;5081679;28;20038;-64
2023/01/15 12:09:32;;;;;;;0.50;0.50;;;7.80;69.70;;;;;;5075217;28;20062;-64
2023/01/15 12:12:06;;;;;;;0.50;0.50;;;7.80;69.60;;;;;;5080551;28;20055;-64
2023/01/15 12:14:31;;;;;;;0.50;0.50;;;7.70;68.80;;;;;;5077403;28;20059;-65
2023/01/15 12:17:03;;;;;;;0.80;0.80;;;7.60;68.60;;;;;;5077422;28;20043;-64
2023/01/15 12:19:44;;;;;;;0.80;0.80;;;7.40;68.80;;;;;;5081775;28;20110;-64
2023/01/15 12:22:23;;;;;;;0.50;0.50;;;7.30;69.10;;;;;;5078560;28;20088;-64
2023/01/15 12:25:10;;;;;;;0.50;0.50;;;7.20;69.10;;;;;;5078569;28;20021;-64
2023/01/15 12:28:06;;;;;;;0.68;0.68;;;7.00;69.40;;;;;;5081696;28;20028;-63
2023/01/15 12:30:51;;;;;;;0.70;0.60;;;6.90;70.00;;;;;;5080662;28;20034;-65
2023/01/15 12:33:20;;;;;;;0.50;0.50;;;6.90;70.20;;;;;;5071492;28;20047;-63
2023/01/15 12:36:32;;;;;;;0.60;0.60;;;6.80;69.90;;;;;;5071628;28;20032;-63
2023/01/15 12:39:06;;;;;;;0.50;0.50;;;6.70;70.00;;;;;;5074977;28;20048;-64
2023/01/15 12:47:21;;;;;;;0.60;0.60;;;6.50;70.50;;;;;;5081322;28;20442;-62
2023/01/15 12:49:52;;;;;;;0.70;0.70;;;6.50;70.30;;;;;;5085842;28;20028;-64
2023/01/15 12:52:29;;;;;;;0.50;0.50;;;6.50;70.60;;;;;;5082471;28;20051;-65
2023/01/15 12:55:21;;;;;;;0.70;0.70;;;6.50;70.80;;;;;;5073651;28;20039;-64
2023/01/15 12:57:55;;;;;;;0.80;0.60;;;6.50;70.90;;;;;;5082116;28;20036;-64
2023/01/15 13:00:38;;;;;;;1.88;0.90;;;6.50;71.00;;;;;;5074905;28;20060;-64
2023/01/15 13:03:33;;;;;;;1.00;0.90;;;6.50;71.20;;;;;;5080449;28;20021;-64
2023/01/15 13:06:03;;;;;;;1.52;0.60;;;6.50;70.90;;;;;;5077810;28;20098;-65
2023/01/15 13:08:46;;;;;;;1.83;0.85;;;6.50;70.90;;;;;;5073211;28;20039;-64
2023/01/15 13:11:12;;;;;;;1.80;0.98;;;6.50;70.90;;;;;;5073246;28;20080;-64
2023/01/15 13:13:41;;;;;;;1.17;0.98;;;6.50;70.70;;;;;;5079390;28;20131;-63
2023/01/15 13:16:23;;;;;;;1.92;1.25;;;6.50;71.10;;;;;;5072868;28;20088;-63
2023/01/15 13:19:00;;;;;;;2.22;1.40;;;6.50;71.20;;;;;;5068949;28;20022;-63
2023/01/15 13:21:31;;;;;;;0.80;0.80;;;6.50;70.80;;;;;;5077178;28;20017;-64
2023/01/15 13:24:15;;;;;;;0.70;0.60;;;6.40;70.90;;;;;;5073675;28;20032;-64
2023/01/15 13:27:02;;;;;;;1.58;0.77;;;6.40;71.10;;;;;;5075281;28;20016;-65
2023/01/15 13:29:30;;;;;;;1.88;1.40;;;6.40;70.70;;;;;;5077010;28;20028;-64
2023/01/15 13:32:31;;;;;;;2.08;1.40;;;6.40;70.90;;;;;;5081021;28;20066;-64
2023/01/15 13:35:09;;;;;;;1.35;1.17;;;6.40;70.90;;;;;;5082759;28;20037;-63
2023/01/15 13:37:47;;;;;;;0.85;0.80;;;6.30;70.80;;;;;;5079420;28;20020;-64
2023/01/15 13:40:20;;;;;;;0.77;0.77;;;6.30;70.90;;;;;;5080938;28;20494;-64
2023/01/15 13:42:48;;;;;;;1.17;0.70;;;6.30;71.10;;;;;;5083731;28;20036;-64
2023/01/15 13:45:13;;;;;;;1.55;0.80;;;6.30;71.00;;;;;;5089755;28;20024;-64
2023/01/15 13:47:48;;;;;;;0.73;0.73;;;6.30;71.00;;;;;;5082043;28;20154;-64
2023/01/15 13:50:25;;;;;;;0.88;0.68;;;6.30;71.20;;;;;;5094619;28;20098;-63
2023/01/15 13:53:00;;;;;;;1.30;1.00;;;6.30;71.30;;;;;;5088857;28;20429;-65
2023/01/15 13:55:36;;;;;;;1.20;1.00;;;6.30;71.60;;;;;;5083656;28;20044;-64
2023/01/15 13:58:15;;;;;;;0.60;0.60;;;6.40;71.70;;;;;;5082685;28;20028;-64
2023/01/15 14:00:40;;;;;;;1.13;1.00;;;6.40;71.50;;;;;;5075715;28;20080;-63
2023/01/15 14:03:26;;;;;;;1.88;0.90;;;6.40;71.40;;;;;;5082236;28;20050;-65
2023/01/15 14:06:00;;;;;;;1.77;0.90;;;6.50;71.60;;;;;;5075559;28;20024;-65